createdAt,value
2022-08-11T00:00:36.604Z,21.48
2022-08-11T00:01:36.781Z,21.48
2022-08-11T00:02:37.340Z,21.47
2022-08-11T00:03:43.360Z,21.47
2022-08-11T00:04:38.299Z,21.45
2022-08-11T00:05:37.453Z,21.48
2022-08-11T00:06:37.619Z,21.48
2022-08-11T00:07:37.775Z,21.50
2022-08-11T00:08:37.951Z,21.47
2022-08-11T00:09:39.197Z,21.44
2022-08-11T00:10:38.228Z,21.44
2022-08-11T00:11:38.395Z,21.43
2022-08-11T00:12:38.772Z,21.43
2022-08-11T00:13:38.696Z,21.44
2022-08-11T00:14:38.860Z,21.43
2022-08-11T00:15:39.038Z,21.44
2022-08-11T00:16:39.204Z,21.43
2022-08-11T00:17:39.359Z,21.41
2022-08-11T00:18:39.554Z,21.41
2022-08-11T00:20:14.209Z,21.40
2022-08-11T00:20:40.810Z,21.38
2022-08-11T00:22:05.292Z,21.35
2022-08-11T00:22:41.098Z,21.32
2022-08-11T00:23:40.268Z,21.32
2022-08-11T00:24:53.548Z,21.30
2022-08-11T00:25:41.657Z,21.28
2022-08-11T00:26:40.817Z,21.29
2022-08-11T00:27:40.978Z,21.28
2022-08-11T00:28:41.168Z,21.25
2022-08-11T00:29:51.629Z,21.22
2022-08-11T00:30:42.462Z,21.17
2022-08-11T00:31:41.627Z,21.15
2022-08-11T00:32:41.794Z,21.15
2022-08-11T00:33:44.755Z,21.13
2022-08-11T00:34:42.182Z,21.10
2022-08-11T00:35:54.226Z,21.11
2022-08-11T00:36:43.475Z,21.11
2022-08-11T00:37:42.639Z,21.10
2022-08-11T00:38:42.823Z,21.08
2022-08-11T00:39:43.020Z,21.10
2022-08-11T00:40:43.211Z,21.08
2022-08-11T00:41:43.383Z,21.05
2022-08-11T00:42:43.559Z,21.01
2022-08-11T00:43:43.750Z,21.00
2022-08-11T00:44:43.920Z,20.96
2022-08-11T00:45:44.081Z,20.93
2022-08-11T00:46:44.248Z,20.96
2022-08-11T00:47:44.428Z,20.98
2022-08-11T00:48:44.605Z,20.96
2022-08-11T00:49:44.781Z,20.95
2022-08-11T00:50:44.961Z,20.93
2022-08-11T00:51:57.630Z,20.92
2022-08-11T00:52:46.298Z,20.90
2022-08-11T00:53:45.470Z,20.86
2022-08-11T00:54:45.637Z,20.88
2022-08-11T00:55:47.165Z,20.88
2022-08-11T00:56:46.950Z,20.85
2022-08-11T00:57:46.111Z,20.86
2022-08-11T00:58:48.342Z,20.85
2022-08-11T00:59:46.484Z,20.85
2022-08-11T01:00:46.706Z,20.86
2022-08-11T01:01:46.787Z,20.83
2022-08-11T01:02:46.958Z,20.78
2022-08-11T01:03:47.142Z,20.77
2022-08-11T01:04:47.317Z,20.77
2022-08-11T01:05:48.436Z,20.75
2022-08-11T01:06:47.640Z,20.73
2022-08-11T01:08:01.638Z,20.70
2022-08-11T01:08:49.050Z,20.68
2022-08-11T01:09:48.214Z,20.68
2022-08-11T01:10:48.385Z,20.67
2022-08-11T01:11:55.510Z,20.66
2022-08-11T01:12:49.800Z,20.68
2022-08-11T01:13:48.997Z,20.71
2022-08-11T01:14:49.177Z,20.73
2022-08-11T01:15:55.625Z,20.74
2022-08-11T01:16:50.479Z,20.74
2022-08-11T01:17:49.646Z,20.73
2022-08-11T01:18:49.821Z,20.71
2022-08-11T01:20:39.465Z,20.70
2022-08-11T01:20:51.154Z,20.70
2022-08-11T01:21:50.319Z,20.70
2022-08-11T01:22:50.486Z,20.70
2022-08-11T01:23:50.655Z,20.70
2022-08-11T01:24:50.820Z,20.70
2022-08-11T01:25:56.800Z,20.67
2022-08-11T01:26:52.114Z,20.66
2022-08-11T01:27:51.268Z,20.66
2022-08-11T01:28:51.443Z,20.63
2022-08-11T01:29:51.612Z,20.60
2022-08-11T01:30:54.190Z,20.59
2022-08-11T01:31:51.905Z,20.60
2022-08-11T01:32:52.069Z,20.59
2022-08-11T01:33:52.245Z,20.56
2022-08-11T01:34:52.423Z,20.55
2022-08-11T01:35:52.587Z,20.55
2022-08-11T01:36:53.541Z,20.55
2022-08-11T01:37:52.884Z,20.55
2022-08-11T01:38:53.063Z,20.55
2022-08-11T01:39:53.299Z,20.52
2022-08-11T01:40:53.447Z,20.49
2022-08-11T01:41:53.612Z,20.50
2022-08-11T01:42:53.777Z,20.50
2022-08-11T01:43:54.012Z,20.52
2022-08-11T01:44:54.222Z,20.49
2022-08-11T01:45:54.391Z,20.49
2022-08-11T01:46:54.574Z,20.49
2022-08-11T01:47:54.806Z,20.46
2022-08-11T01:48:54.824Z,20.44
2022-08-11T01:50:07.351Z,20.40
2022-08-11T01:50:56.123Z,20.39
2022-08-11T01:51:55.293Z,20.36
2022-08-11T01:52:55.462Z,20.36
2022-08-11T01:53:55.653Z,20.39
2022-08-11T01:54:55.822Z,20.36
2022-08-11T01:55:56.007Z,20.32
2022-08-11T01:56:56.174Z,20.32
2022-08-11T01:57:56.346Z,20.30
2022-08-11T01:58:56.522Z,20.30
2022-08-11T01:59:56.704Z,20.30
2022-08-11T02:00:56.931Z,20.32
2022-08-11T02:01:57.002Z,20.32
2022-08-11T02:02:57.176Z,20.29
2022-08-11T02:03:57.342Z,20.27
2022-08-11T02:04:57.528Z,20.22
2022-08-11T02:05:57.703Z,20.19
2022-08-11T02:06:57.892Z,20.18
2022-08-11T02:07:58.076Z,20.19
2022-08-11T02:08:58.249Z,20.22
2022-08-11T02:09:58.433Z,20.24
2022-08-11T02:10:58.558Z,20.22
2022-08-11T02:11:58.666Z,20.21
2022-08-11T02:12:58.848Z,20.21
2022-08-11T02:13:59.036Z,20.21
2022-08-11T02:15:04.472Z,20.19
2022-08-11T02:16:00.363Z,20.19
2022-08-11T02:16:59.541Z,20.15
2022-08-11T02:17:59.712Z,20.12
2022-08-11T02:18:59.892Z,20.11
2022-08-11T02:20:00.081Z,20.08
2022-08-11T02:21:00.270Z,20.04
2022-08-11T02:22:00.459Z,20.02
2022-08-11T02:23:00.642Z,19.97
2022-08-11T02:24:06.612Z,20.00
2022-08-11T02:25:01.962Z,20.02
2022-08-11T02:26:01.132Z,20.00
2022-08-11T02:27:01.310Z,20.02
2022-08-11T02:28:01.489Z,20.02
2022-08-11T02:29:01.678Z,19.99
2022-08-11T02:30:01.875Z,19.97
2022-08-11T02:31:02.057Z,19.96
2022-08-11T02:32:15.567Z,19.92
2022-08-11T02:33:03.360Z,19.90
2022-08-11T02:34:02.540Z,19.87
2022-08-11T02:35:02.730Z,19.89
2022-08-11T02:36:02.902Z,19.84
2022-08-11T02:37:03.082Z,19.84
2022-08-11T02:38:03.269Z,19.84
2022-08-11T02:39:03.451Z,19.85
2022-08-11T02:40:03.638Z,19.85
2022-08-11T02:41:03.810Z,19.82
2022-08-11T02:42:03.985Z,19.82
2022-08-11T02:43:04.167Z,19.84
2022-08-11T02:44:04.339Z,19.82
2022-08-11T02:45:04.534Z,19.82
2022-08-11T02:46:04.702Z,19.82
2022-08-11T02:47:04.879Z,19.78
2022-08-11T02:48:05.057Z,19.75
2022-08-11T02:49:05.233Z,19.74
2022-08-11T02:50:07.251Z,19.72
2022-08-11T02:51:05.607Z,19.71
2022-08-11T02:52:05.789Z,19.70
2022-08-11T02:53:05.969Z,19.71
2022-08-11T02:54:06.142Z,19.66
2022-08-11T02:55:06.326Z,19.66
2022-08-11T02:56:06.521Z,19.64
2022-08-11T02:57:11.369Z,19.64
2022-08-11T02:58:07.848Z,19.60
2022-08-11T02:59:07.026Z,19.62
2022-08-11T03:00:07.210Z,19.59
2022-08-11T03:01:07.396Z,19.57
2022-08-11T03:02:07.701Z,19.56
2022-08-11T03:03:07.778Z,19.57
2022-08-11T03:04:07.961Z,19.56
2022-08-11T03:05:08.182Z,19.53
2022-08-11T03:06:08.366Z,19.59
2022-08-11T03:07:28.864Z,19.59
2022-08-11T03:08:09.689Z,19.59
2022-08-11T03:09:08.866Z,19.55
2022-08-11T03:10:09.075Z,19.53
2022-08-11T03:11:09.279Z,19.55
2022-08-11T03:12:09.473Z,19.52
2022-08-11T03:13:09.653Z,19.48
2022-08-11T03:14:09.844Z,19.47
2022-08-11T03:15:10.076Z,19.48
2022-08-11T03:16:10.243Z,19.47
2022-08-11T03:17:10.431Z,19.42
2022-08-11T03:18:10.608Z,19.39
2022-08-11T03:19:10.785Z,19.38
2022-08-11T03:20:10.985Z,19.38
2022-08-11T03:21:11.173Z,19.39
2022-08-11T03:22:11.360Z,19.41
2022-08-11T03:23:19.920Z,19.38
2022-08-11T03:24:12.669Z,19.37
2022-08-11T03:25:13.092Z,19.34
2022-08-11T03:26:12.021Z,19.32
2022-08-11T03:27:12.223Z,19.32
2022-08-11T03:28:12.433Z,19.34
2022-08-11T03:29:12.615Z,19.35
2022-08-11T03:30:13.796Z,19.37
2022-08-11T03:31:12.977Z,19.38
2022-08-11T03:32:13.156Z,19.38
2022-08-11T03:33:13.347Z,19.34
2022-08-11T03:34:13.527Z,19.37
2022-08-11T03:35:21.268Z,19.35
2022-08-11T03:36:14.859Z,19.35
2022-08-11T03:37:17.918Z,19.35
2022-08-11T03:38:14.213Z,19.34
2022-08-11T03:39:14.470Z,19.32
2022-08-11T03:41:50.051Z,19.27
2022-08-11T03:42:12.075Z,19.27
2022-08-11T03:43:11.209Z,19.27
2022-08-11T03:44:11.354Z,19.26
2022-08-11T03:45:11.509Z,19.24
2022-08-11T03:46:11.663Z,19.23
2022-08-11T03:47:11.795Z,19.22
2022-08-11T03:48:11.930Z,19.23
2022-08-11T03:49:12.075Z,19.23
2022-08-11T03:50:12.234Z,19.23
2022-08-11T03:51:12.379Z,19.24
2022-08-11T03:52:12.525Z,19.26
2022-08-11T03:53:12.672Z,19.27
2022-08-11T03:54:12.813Z,19.27
2022-08-11T03:55:12.963Z,19.27
2022-08-11T03:56:13.103Z,19.27
2022-08-11T03:57:13.240Z,19.24
2022-08-11T03:58:13.378Z,19.23
2022-08-11T03:59:13.518Z,19.22
2022-08-11T04:00:13.675Z,19.23
2022-08-11T04:01:13.855Z,19.22
2022-08-11T04:02:13.981Z,19.19
2022-08-11T04:03:14.131Z,19.19
2022-08-11T04:04:14.274Z,19.22
2022-08-11T04:05:14.430Z,19.22
2022-08-11T04:06:14.570Z,19.23
2022-08-11T04:07:17.802Z,19.24
2022-08-11T04:08:14.873Z,19.24
2022-08-11T04:09:15.021Z,19.24
2022-08-11T04:10:15.185Z,19.26
2022-08-11T04:11:15.327Z,19.29
2022-08-11T04:12:34.756Z,19.30
2022-08-11T04:13:16.563Z,19.30
2022-08-11T04:14:15.698Z,19.34
2022-08-11T04:15:15.860Z,19.30
2022-08-11T04:16:16.001Z,19.27
2022-08-11T04:17:16.149Z,19.29
2022-08-11T04:18:16.291Z,19.27
2022-08-11T04:19:16.435Z,19.29
2022-08-11T04:20:16.601Z,19.26
2022-08-11T04:21:16.754Z,19.24
2022-08-11T04:22:16.899Z,19.23
2022-08-11T04:24:34.812Z,19.22
2022-08-11T04:24:38.121Z,19.19
2022-08-11T04:25:18.366Z,19.19
2022-08-11T04:26:19.037Z,19.19
2022-08-11T04:27:19.143Z,19.19
2022-08-11T04:28:28.715Z,19.22
2022-08-11T04:29:18.957Z,19.23
2022-08-11T04:30:18.138Z,19.23
2022-08-11T04:31:44.178Z,19.24
2022-08-11T04:32:19.326Z,19.27
2022-08-11T04:33:18.473Z,19.24
2022-08-11T04:34:18.607Z,19.27
2022-08-11T04:35:18.752Z,19.27
2022-08-11T04:36:18.910Z,19.32
2022-08-11T04:37:19.060Z,19.37
2022-08-11T04:38:19.208Z,19.37
2022-08-11T04:39:19.381Z,19.37
2022-08-11T04:40:19.530Z,19.34
2022-08-11T04:41:19.698Z,19.34
2022-08-11T04:42:19.831Z,19.35
2022-08-11T04:43:19.988Z,19.34
2022-08-11T04:44:20.127Z,19.39
2022-08-11T04:45:20.270Z,19.41
2022-08-11T04:46:20.429Z,19.42
2022-08-11T04:47:20.574Z,19.38
2022-08-11T04:48:20.771Z,19.38
2022-08-11T04:49:24.161Z,19.35
2022-08-11T04:50:21.897Z,19.38
2022-08-11T04:51:21.057Z,19.38
2022-08-11T04:52:21.197Z,19.37
2022-08-11T04:53:21.332Z,19.35
2022-08-11T04:54:25.117Z,19.34
2022-08-11T04:55:22.681Z,19.30
2022-08-11T04:56:21.838Z,19.30
2022-08-11T04:57:21.980Z,19.35
2022-08-11T04:58:22.131Z,19.38
2022-08-11T04:59:23.224Z,19.41
2022-08-11T05:00:22.369Z,19.44
2022-08-11T05:01:22.574Z,19.45
2022-08-11T05:02:22.706Z,19.49
2022-08-11T05:03:22.789Z,19.49
2022-08-11T05:04:22.932Z,19.49
2022-08-11T05:05:23.082Z,19.53
2022-08-11T05:06:23.239Z,19.56
2022-08-11T05:07:23.388Z,19.59
2022-08-11T05:08:24.301Z,19.57
2022-08-11T05:09:23.712Z,19.59
2022-08-11T05:10:23.914Z,19.62
2022-08-11T05:11:24.078Z,19.64
2022-08-11T05:12:24.215Z,19.67
2022-08-11T05:13:24.366Z,19.70
2022-08-11T05:14:24.518Z,19.72
2022-08-11T05:15:24.672Z,19.75
2022-08-11T05:16:24.831Z,19.79
2022-08-11T05:17:24.979Z,19.79
2022-08-11T05:18:25.118Z,19.84
2022-08-11T05:19:25.267Z,19.85
2022-08-11T05:20:25.405Z,19.87
2022-08-11T05:21:25.612Z,19.90
2022-08-11T05:22:25.724Z,19.93
2022-08-11T05:23:25.855Z,19.97
2022-08-11T05:24:26.008Z,20.03
2022-08-11T05:26:44.264Z,20.08
2022-08-11T05:26:46.736Z,20.10
2022-08-11T05:27:27.343Z,20.08
2022-08-11T05:28:26.478Z,20.12
2022-08-11T05:29:26.614Z,20.17
2022-08-11T05:30:26.757Z,20.18
2022-08-11T05:31:26.913Z,20.21
2022-08-11T05:32:27.050Z,20.26
2022-08-11T05:33:27.195Z,20.30
2022-08-11T05:34:27.329Z,20.34
2022-08-11T05:36:02.188Z,20.39
2022-08-11T05:36:28.549Z,20.42
2022-08-11T05:37:27.929Z,20.48
2022-08-11T05:38:27.849Z,20.49
2022-08-11T05:39:33.953Z,20.55
2022-08-11T05:40:29.070Z,20.55
2022-08-11T05:41:28.205Z,20.55
2022-08-11T05:42:29.922Z,20.50
2022-08-11T05:43:28.505Z,20.55
2022-08-11T05:44:28.645Z,20.58
2022-08-11T05:45:28.782Z,20.58
2022-08-11T05:46:29.865Z,20.64
2022-08-11T05:47:29.010Z,20.68
2022-08-11T05:48:29.144Z,20.74
2022-08-11T05:49:29.273Z,20.74
2022-08-11T05:50:32.814Z,20.78
2022-08-11T05:51:30.368Z,20.86
2022-08-11T05:52:31.962Z,20.90
2022-08-11T05:53:29.905Z,20.96
2022-08-11T05:54:30.975Z,21.03
2022-08-11T05:55:30.108Z,21.07
2022-08-11T05:56:30.234Z,21.05
2022-08-11T05:57:43.891Z,21.07
2022-08-11T05:58:31.494Z,21.05
2022-08-11T05:59:30.618Z,21.08
2022-08-11T06:00:30.744Z,21.11
2022-08-11T06:01:30.904Z,21.14
2022-08-11T06:02:31.025Z,21.20
2022-08-11T06:03:31.163Z,21.29
2022-08-11T06:04:31.284Z,21.33
2022-08-11T06:05:31.414Z,21.37
2022-08-11T06:06:32.493Z,21.44
2022-08-11T06:07:49.040Z,21.53
2022-08-11T06:08:32.742Z,21.56
2022-08-11T06:09:31.869Z,21.62
2022-08-11T06:10:32.002Z,21.66
2022-08-11T06:11:43.078Z,21.65
2022-08-11T06:12:33.264Z,21.63
2022-08-11T06:13:32.384Z,21.63
2022-08-11T06:14:32.513Z,21.65
2022-08-11T06:15:32.671Z,21.74
2022-08-11T06:16:32.818Z,21.84
2022-08-11T06:17:39.039Z,21.78
2022-08-11T06:18:34.027Z,21.81
2022-08-11T06:19:33.154Z,21.80
2022-08-11T06:20:33.276Z,21.84
2022-08-11T06:21:33.417Z,21.94
2022-08-11T06:22:33.575Z,21.96
2022-08-11T06:23:33.708Z,22.03
2022-08-11T06:24:33.845Z,22.10
2022-08-11T06:25:33.976Z,22.07
2022-08-11T06:26:44.850Z,22.12
2022-08-11T06:27:35.172Z,22.19
2022-08-11T06:28:34.315Z,22.34
2022-08-11T06:29:37.448Z,22.46
2022-08-11T06:30:34.626Z,22.52
2022-08-11T06:31:34.764Z,22.74
2022-08-11T06:32:34.882Z,22.91
2022-08-11T06:33:35.024Z,22.98
2022-08-11T06:34:35.133Z,23.06
2022-08-11T06:35:35.260Z,23.14
2022-08-11T06:36:35.321Z,23.26
2022-08-11T06:37:36.725Z,23.29
2022-08-11T06:38:35.621Z,23.42
2022-08-11T06:39:35.795Z,23.32
2022-08-11T06:40:35.802Z,23.29
2022-08-11T06:41:35.919Z,23.45
2022-08-11T06:42:36.179Z,23.70
2022-08-11T06:43:36.163Z,23.76
2022-08-11T06:44:36.276Z,23.92
2022-08-11T06:45:36.392Z,24.07
2022-08-11T06:46:36.510Z,24.28
2022-08-11T06:47:36.627Z,24.37
2022-08-11T06:48:36.710Z,24.38
2022-08-11T06:49:36.824Z,24.41
2022-08-11T06:50:36.951Z,24.53
2022-08-11T06:51:37.060Z,24.55
2022-08-11T06:52:37.153Z,24.58
2022-08-11T06:53:37.290Z,24.71
2022-08-11T06:54:37.399Z,24.85
2022-08-11T06:55:56.762Z,24.79
2022-08-11T06:56:38.556Z,24.78
2022-08-11T06:57:37.661Z,25.01
2022-08-11T06:58:37.783Z,25.33
2022-08-11T06:59:37.881Z,25.33
2022-08-11T07:00:37.961Z,25.43
2022-08-11T07:01:38.114Z,25.85
2022-08-11T07:02:38.221Z,26.06
2022-08-11T07:03:38.330Z,26.31
2022-08-11T07:04:38.421Z,26.60
2022-08-11T07:05:38.666Z,26.82
2022-08-11T07:06:50.689Z,26.98
2022-08-11T07:07:39.641Z,27.11
2022-08-11T07:08:38.772Z,27.19
2022-08-11T07:09:38.875Z,27.20
2022-08-11T07:10:38.983Z,27.05
2022-08-11T07:11:39.120Z,26.97
2022-08-11T07:12:39.381Z,27.08
2022-08-11T07:13:45.475Z,27.33
2022-08-11T07:14:40.403Z,27.57
2022-08-11T07:16:13.166Z,27.81
2022-08-11T07:16:40.542Z,27.86
2022-08-11T07:17:39.633Z,28.12
2022-08-11T07:18:39.764Z,28.31
2022-08-11T07:19:39.861Z,28.34
2022-08-11T07:20:39.952Z,28.19
2022-08-11T07:22:00.224Z,28.30
2022-08-11T07:22:41.129Z,28.34
2022-08-11T07:23:40.281Z,28.72
2022-08-11T07:24:59.513Z,28.86
2022-08-11T07:25:41.355Z,29.03
2022-08-11T07:26:40.432Z,29.03
2022-08-11T07:27:40.522Z,29.06
2022-08-11T07:28:40.632Z,29.42
2022-08-11T07:29:40.723Z,29.74
2022-08-11T07:30:40.823Z,29.76
2022-08-11T07:31:40.910Z,29.83
2022-08-11T07:32:40.993Z,29.65
2022-08-11T07:34:06.500Z,29.69
2022-08-11T07:34:42.137Z,29.68
2022-08-11T07:35:41.216Z,29.71
2022-08-11T07:36:41.314Z,29.87
2022-08-11T07:37:41.392Z,30.03
2022-08-11T07:38:41.490Z,29.86
2022-08-11T07:39:41.649Z,29.99
2022-08-11T07:40:41.616Z,29.95
2022-08-11T07:41:41.691Z,30.27
2022-08-11T07:42:41.766Z,30.44
2022-08-11T07:43:41.853Z,30.61
2022-08-11T07:44:41.938Z,30.83
2022-08-11T07:45:42.028Z,31.17
2022-08-11T07:46:42.103Z,30.73
2022-08-11T07:47:42.175Z,30.59
2022-08-11T07:48:42.263Z,30.88
2022-08-11T07:49:42.330Z,30.99
2022-08-11T07:50:42.524Z,30.76
2022-08-11T07:51:42.510Z,30.35
2022-08-11T07:52:42.584Z,30.36
2022-08-11T07:53:58.575Z,30.65
2022-08-11T07:54:43.684Z,30.74
2022-08-11T07:55:51.855Z,30.92
2022-08-11T07:56:55.158Z,31.15
2022-08-11T07:58:13.544Z,31.18
2022-08-11T07:58:45.170Z,31.20
2022-08-11T08:00:03.702Z,31.32
2022-08-11T08:00:43.843Z,31.52
2022-08-11T08:01:42.972Z,31.86
2022-08-11T08:02:42.994Z,31.93
2022-08-11T08:03:54.245Z,31.86
2022-08-11T08:04:47.277Z,31.81
2022-08-11T08:05:43.164Z,32.00
2022-08-11T08:06:43.213Z,32.26
2022-08-11T08:07:43.264Z,32.17
2022-08-11T08:08:43.285Z,31.82
2022-08-11T08:09:43.343Z,31.42
2022-08-11T08:10:43.396Z,31.37
2022-08-11T08:11:43.437Z,31.69
2022-08-11T08:12:43.485Z,31.74
2022-08-11T08:13:43.548Z,31.79
2022-08-11T08:14:43.556Z,31.55
2022-08-11T08:15:43.594Z,31.50
2022-08-11T08:16:43.645Z,31.15
2022-08-11T08:17:43.690Z,31.10
2022-08-11T08:18:43.753Z,31.17
2022-08-11T08:19:43.811Z,31.26
2022-08-11T08:20:43.869Z,31.35
2022-08-11T08:21:45.289Z,31.10
2022-08-11T08:22:47.896Z,31.47
2022-08-11T08:23:43.943Z,31.73
2022-08-11T08:24:43.970Z,31.95
2022-08-11T08:25:44.012Z,32.29
2022-08-11T08:26:51.421Z,32.54
2022-08-11T08:27:45.100Z,32.41
2022-08-11T08:28:44.018Z,32.45
2022-08-11T08:29:44.091Z,32.48
2022-08-11T08:30:44.015Z,32.49
2022-08-11T08:31:44.073Z,32.86
2022-08-11T08:32:44.097Z,33.17
2022-08-11T08:33:44.122Z,33.39
2022-08-11T08:34:44.179Z,33.29
2022-08-11T08:35:54.759Z,32.88
2022-08-11T08:36:45.178Z,32.67
2022-08-11T08:37:45.806Z,32.57
2022-08-11T08:38:44.254Z,32.72
2022-08-11T08:39:44.333Z,32.95
2022-08-11T08:40:44.337Z,32.76
2022-08-11T08:41:44.348Z,32.48
2022-08-11T08:42:45.397Z,32.56
2022-08-11T08:43:48.791Z,32.76
2022-08-11T08:44:45.448Z,33.09
2022-08-11T08:45:44.348Z,33.28
2022-08-11T08:46:44.361Z,33.38
2022-08-11T08:47:44.369Z,33.03
2022-08-11T08:48:44.374Z,32.95
2022-08-11T08:49:46.519Z,33.03
2022-08-11T08:50:44.357Z,33.08
2022-08-11T08:52:02.479Z,32.72
2022-08-11T08:52:45.639Z,32.56
2022-08-11T08:53:52.219Z,32.46
2022-08-11T08:54:45.196Z,32.42
2022-08-11T08:55:45.634Z,32.45
2022-08-11T08:56:44.213Z,32.44
2022-08-11T08:57:44.208Z,32.35
2022-08-11T08:58:44.206Z,32.66
2022-08-11T08:59:49.248Z,32.94
2022-08-11T09:00:45.181Z,33.19
2022-08-11T09:01:44.207Z,33.12
2022-08-11T09:02:44.235Z,33.45
2022-08-11T09:04:06.814Z,33.61
2022-08-11T09:04:45.030Z,33.54
2022-08-11T09:05:44.014Z,33.12
2022-08-11T09:06:44.028Z,32.85
2022-08-11T09:07:45.085Z,32.54
2022-08-11T09:08:43.968Z,32.46
2022-08-11T09:09:43.949Z,32.22
2022-08-11T09:10:44.437Z,32.15
2022-08-11T09:11:43.868Z,32.15
2022-08-11T09:12:43.842Z,32.26
2022-08-11T09:13:43.813Z,32.59
2022-08-11T09:14:43.793Z,32.73
2022-08-11T09:15:43.759Z,32.98
2022-08-11T09:16:43.736Z,33.29
2022-08-11T09:17:43.710Z,33.63
2022-08-11T09:18:43.672Z,33.95
2022-08-11T09:19:43.630Z,33.77
2022-08-11T09:20:44.535Z,33.35
2022-08-11T09:21:49.095Z,32.82
2022-08-11T09:22:44.415Z,32.75
2022-08-11T09:24:44.307Z,32.73
2022-08-11T09:25:43.260Z,32.63
2022-08-11T09:26:43.223Z,32.90
2022-08-11T09:27:50.359Z,32.82
2022-08-11T09:28:44.132Z,32.53
2022-08-11T09:29:43.097Z,32.54
2022-08-11T09:30:43.060Z,32.78
2022-08-11T09:31:43.013Z,32.85
2022-08-11T09:32:42.978Z,32.86
2022-08-11T09:33:43.091Z,32.82
2022-08-11T09:34:42.881Z,32.91
2022-08-11T09:35:42.842Z,33.23
2022-08-11T09:36:42.809Z,33.66
2022-08-11T09:37:55.906Z,33.92
2022-08-11T09:38:48.837Z,34.22
2022-08-11T09:39:43.590Z,34.63
2022-08-11T09:40:52.820Z,34.85
2022-08-11T09:42:01.648Z,35.12
2022-08-11T09:42:46.079Z,35.45
2022-08-11T09:43:43.010Z,35.34
2022-08-11T09:44:42.181Z,34.53
2022-08-11T09:45:42.122Z,33.97
2022-08-11T09:46:42.074Z,33.17
2022-08-11T09:47:42.011Z,33.20
2022-08-11T09:48:41.970Z,32.75
2022-08-11T09:49:41.904Z,32.98
2022-08-11T09:50:41.845Z,32.90
2022-08-11T09:51:41.790Z,32.49
2022-08-11T09:53:03.536Z,32.02
2022-08-11T09:53:42.573Z,32.41
2022-08-11T09:54:42.491Z,33.26
2022-08-11T09:55:42.389Z,33.88
2022-08-11T09:56:41.332Z,33.94
2022-08-11T09:57:41.383Z,33.55
2022-08-11T09:58:42.492Z,33.50
2022-08-11T09:59:41.111Z,33.31
2022-08-11T10:00:41.063Z,33.40
2022-08-11T10:01:41.033Z,33.55
2022-08-11T10:02:40.962Z,33.51
2022-08-11T10:03:40.903Z,33.28
2022-08-11T10:04:40.845Z,33.45
2022-08-11T10:05:40.798Z,33.60
2022-08-11T10:06:40.735Z,33.97
2022-08-11T10:07:40.661Z,34.37
2022-08-11T10:08:40.549Z,34.71
2022-08-11T10:09:40.501Z,34.97
2022-08-11T10:10:40.433Z,34.78
2022-08-11T10:11:40.376Z,34.86
2022-08-11T10:12:40.303Z,35.12
2022-08-11T10:14:30.846Z,35.30
2022-08-11T10:14:44.547Z,35.26
2022-08-11T10:15:40.052Z,35.00
2022-08-11T10:16:40.947Z,34.69
2022-08-11T10:17:39.970Z,34.82
2022-08-11T10:18:39.841Z,35.15
2022-08-11T10:19:39.752Z,35.42
2022-08-11T10:20:39.672Z,35.35
2022-08-11T10:21:39.622Z,34.79
2022-08-11T10:22:39.557Z,34.50
2022-08-11T10:24:05.650Z,34.04
2022-08-11T10:25:53.166Z,33.92
2022-08-11T10:26:53.756Z,34.28
2022-08-11T10:28:30.559Z,34.78
2022-08-11T10:29:12.133Z,35.12
2022-08-11T10:29:54.588Z,35.25
2022-08-11T10:30:53.768Z,35.22
2022-08-11T10:31:57.561Z,35.56
2022-08-11T10:32:59.247Z,35.75
2022-08-11T10:33:59.053Z,35.49
2022-08-11T10:34:57.906Z,35.44
2022-08-11T10:35:54.333Z,35.76
2022-08-11T10:36:54.465Z,36.09
2022-08-11T10:38:06.849Z,36.24
2022-08-11T10:38:55.686Z,36.41
2022-08-11T10:39:54.856Z,36.24
2022-08-11T10:40:54.961Z,35.72
2022-08-11T10:42:06.517Z,35.12
2022-08-11T10:42:58.184Z,34.46
2022-08-11T10:44:03.629Z,34.47
2022-08-11T10:44:56.410Z,34.83
2022-08-11T10:45:55.535Z,35.30
2022-08-11T10:46:55.655Z,35.74
2022-08-11T10:47:55.782Z,36.28
2022-08-11T10:48:55.926Z,36.72
2022-08-11T10:49:56.046Z,36.66
2022-08-11T10:50:56.165Z,36.94
2022-08-11T10:51:58.785Z,36.97
2022-08-11T10:52:56.458Z,37.43
2022-08-11T10:53:56.625Z,37.28
2022-08-11T10:54:56.740Z,36.96
2022-08-11T10:55:58.563Z,36.65
2022-08-11T10:56:57.010Z,36.88
2022-08-11T10:58:04.974Z,37.18
2022-08-11T10:59:02.055Z,37.53
2022-08-11T10:59:58.311Z,37.76
2022-08-11T11:00:57.496Z,38.32
2022-08-11T11:01:57.512Z,38.62
2022-08-11T11:03:22.383Z,38.09
2022-08-11T11:03:58.719Z,38.12
2022-08-11T11:04:57.850Z,37.88
2022-08-11T11:06:28.107Z,37.78
2022-08-11T11:06:59.038Z,37.75
2022-08-11T11:07:58.160Z,37.94
2022-08-11T11:09:03.768Z,37.58
2022-08-11T11:09:59.376Z,37.36
2022-08-11T11:10:58.493Z,37.47
2022-08-11T11:11:58.609Z,38.05
2022-08-11T11:12:58.731Z,38.38
2022-08-11T11:13:58.845Z,38.41
2022-08-11T11:14:59.346Z,37.95
2022-08-11T11:15:59.058Z,36.87
2022-08-11T11:16:59.173Z,35.71
2022-08-11T11:17:59.294Z,35.22
2022-08-11T11:18:59.414Z,35.08
2022-08-11T11:19:59.505Z,35.69
2022-08-11T11:20:59.622Z,36.28
2022-08-11T11:21:59.747Z,36.57
2022-08-11T11:22:59.866Z,36.59
2022-08-11T11:24:00.002Z,36.33
2022-08-11T11:25:00.162Z,36.51
2022-08-11T11:26:00.309Z,36.41
2022-08-11T11:27:00.445Z,36.85
2022-08-11T11:28:00.576Z,37.23
2022-08-11T11:29:00.707Z,37.14
2022-08-11T11:30:00.866Z,37.18
2022-08-11T11:31:00.994Z,36.82
2022-08-11T11:32:01.130Z,36.45
2022-08-11T11:33:01.273Z,36.32
2022-08-11T11:34:12.074Z,36.36
2022-08-11T11:35:02.533Z,36.53
2022-08-11T11:36:01.674Z,36.89
2022-08-11T11:37:01.815Z,37.18
2022-08-11T11:38:05.015Z,36.60
2022-08-11T11:39:02.105Z,36.16
2022-08-11T11:40:02.248Z,35.97
2022-08-11T11:41:02.378Z,35.74
2022-08-11T11:42:02.531Z,35.59
2022-08-11T11:43:02.675Z,35.41
2022-08-11T11:44:02.811Z,35.71
2022-08-11T11:45:02.967Z,36.31
2022-08-11T11:46:03.142Z,36.26
2022-08-11T11:47:03.308Z,36.29
2022-08-11T11:48:03.467Z,36.97
2022-08-11T11:49:03.616Z,37.54
2022-08-11T11:50:04.729Z,37.66
2022-08-11T11:51:03.885Z,37.56
2022-08-11T11:52:04.042Z,37.19
2022-08-11T11:53:04.179Z,37.07
2022-08-11T11:54:04.326Z,37.54
2022-08-11T11:55:04.468Z,37.06
2022-08-11T11:56:04.649Z,36.54
2022-08-11T11:57:04.797Z,35.35
2022-08-11T11:58:04.968Z,34.70
2022-08-11T11:59:05.175Z,34.04
2022-08-11T12:00:05.346Z,33.84
2022-08-11T12:01:05.520Z,33.57
2022-08-11T12:02:07.505Z,33.16
2022-08-11T12:03:06.927Z,33.05
2022-08-11T12:04:05.998Z,33.17
2022-08-11T12:05:06.178Z,33.67
2022-08-11T12:06:06.385Z,34.04
2022-08-11T12:07:06.585Z,34.41
2022-08-11T12:08:12.837Z,34.55
2022-08-11T12:09:07.929Z,34.76
2022-08-11T12:10:07.110Z,35.38
2022-08-11T12:11:07.318Z,35.56
2022-08-11T12:12:07.495Z,36.14
2022-08-11T12:13:07.678Z,36.59
2022-08-11T12:14:10.646Z,36.41
2022-08-11T12:15:08.145Z,36.32
2022-08-11T12:16:33.023Z,36.62
2022-08-11T12:17:09.469Z,36.96
2022-08-11T12:18:08.650Z,37.09
2022-08-11T12:19:08.845Z,37.06
2022-08-11T12:20:32.155Z,36.87
2022-08-11T12:21:10.168Z,36.51
2022-08-11T12:22:09.364Z,36.16
2022-08-11T12:23:09.556Z,35.91
2022-08-11T12:24:10.671Z,36.00
2022-08-11T12:25:09.851Z,36.17
2022-08-11T12:26:26.248Z,36.55
2022-08-11T12:27:16.080Z,36.82
2022-08-11T12:28:11.285Z,36.63
2022-08-11T12:29:10.461Z,36.39
2022-08-11T12:30:10.685Z,36.55
2022-08-11T12:31:10.826Z,37.01
2022-08-11T12:32:11.018Z,37.37
2022-08-11T12:33:11.191Z,37.54
2022-08-11T12:34:11.365Z,37.29
2022-08-11T12:35:11.548Z,37.14
2022-08-11T12:36:11.700Z,37.23
2022-08-11T12:37:12.960Z,37.44
2022-08-11T12:38:12.778Z,37.48
2022-08-11T12:39:23.330Z,37.61
2022-08-11T12:40:43.301Z,37.97
2022-08-11T12:41:14.998Z,38.73
2022-08-11T12:42:12.592Z,39.39
2022-08-11T12:43:21.618Z,39.71
2022-08-11T12:44:13.893Z,39.78
2022-08-11T12:45:21.981Z,40.12
2022-08-11T12:46:14.186Z,40.02
2022-08-11T12:47:13.363Z,40.00
2022-08-11T12:48:57.963Z,40.20
2022-08-11T12:49:14.634Z,40.48
2022-08-11T12:50:22.863Z,40.98
2022-08-11T12:51:14.915Z,41.20
2022-08-11T12:52:15.742Z,41.23
2022-08-11T12:53:14.163Z,40.71
2022-08-11T12:54:14.304Z,40.05
2022-08-11T12:55:14.464Z,39.30
2022-08-11T12:56:14.625Z,38.42
2022-08-11T12:57:14.811Z,37.73